createdAt,value
2023-01-22T00:02:44.157Z,79.21
2023-01-22T00:07:45.938Z,78.95
2023-01-22T00:12:47.770Z,79.08
2023-01-22T00:17:49.556Z,79.08
2023-01-22T00:22:51.263Z,79.05
2023-01-22T00:27:54.111Z,79.12
2023-01-22T00:32:55.946Z,79.27
2023-01-22T00:37:59.218Z,79.37
2023-01-22T00:43:01.132Z,79.45
2023-01-22T00:48:03.231Z,79.60
2023-01-22T00:53:05.079Z,79.52
2023-01-22T00:58:06.910Z,79.72
2023-01-22T01:03:27.486Z,79.67
2023-01-22T01:08:32.402Z,79.66
2023-01-22T01:13:38.513Z,79.73
2023-01-22T01:18:40.497Z,79.72
2023-01-22T01:23:42.891Z,79.80
2023-01-22T01:28:45.855Z,79.71
2023-01-22T01:33:48.205Z,79.91
2023-01-22T01:38:51.530Z,79.99
2023-01-22T01:44:14.228Z,80.26
2023-01-22T01:49:22.544Z,80.14
2023-01-22T01:54:25.887Z,80.09
2023-01-22T01:59:28.210Z,80.23
2023-01-22T02:04:30.867Z,80.14
2023-01-22T02:09:34.426Z,80.39
2023-01-22T02:14:40.622Z,80.57
2023-01-22T02:19:44.246Z,80.43
2023-01-22T02:24:46.289Z,80.44
2023-01-22T02:29:48.521Z,80.48
2023-01-22T02:34:50.948Z,80.71
2023-01-22T02:39:52.916Z,80.46
2023-01-22T02:44:55.041Z,80.67
2023-01-22T02:49:56.868Z,80.90
2023-01-22T02:54:58.901Z,80.94
2023-01-22T03:00:00.925Z,80.77
2023-01-22T03:05:05.769Z,80.90
2023-01-22T03:10:10.899Z,80.87
2023-01-22T03:15:32.130Z,80.93
2023-01-22T03:20:55.545Z,80.85
2023-01-22T03:25:57.387Z,80.84
2023-01-22T03:31:00.633Z,80.86
2023-01-22T03:36:06.339Z,80.98
2023-01-22T03:41:16.271Z,81.10
2023-01-22T03:46:20.093Z,81.13
2023-01-22T03:51:26.382Z,81.14
2023-01-22T03:56:28.576Z,80.99
2023-01-22T04:01:36.004Z,81.35
2023-01-22T04:06:37.859Z,81.22
2023-01-22T04:11:39.845Z,81.38
2023-01-22T04:16:44.178Z,81.24
2023-01-22T04:22:18.182Z,81.44
2023-01-22T04:27:21.637Z,81.20
2023-01-22T04:32:26.385Z,81.40
2023-01-22T04:37:46.201Z,81.44
2023-01-22T04:42:48.218Z,81.51
2023-01-22T04:47:50.135Z,81.41
2023-01-22T04:52:56.416Z,81.42
2023-01-22T04:58:00.177Z,81.32
2023-01-22T05:03:04.618Z,81.41
2023-01-22T05:08:06.888Z,81.28
2023-01-22T05:13:11.480Z,81.46
2023-01-22T05:18:14.272Z,81.42
2023-01-22T05:23:28.174Z,81.54
2023-01-22T05:28:30.695Z,81.39
2023-01-22T05:34:07.976Z,81.53
2023-01-22T05:39:10.227Z,81.48
2023-01-22T05:44:14.059Z,81.48
2023-01-22T05:49:19.007Z,81.50
2023-01-22T05:54:20.962Z,81.42
2023-01-22T05:59:23.885Z,81.44
2023-01-22T06:04:34.007Z,81.44
2023-01-22T06:09:39.399Z,81.48
2023-01-22T06:14:41.556Z,81.29
2023-01-22T06:19:44.081Z,81.36
2023-01-22T06:24:47.277Z,81.18
2023-01-22T06:29:51.578Z,81.29
2023-01-22T06:34:53.850Z,81.17
2023-01-22T06:39:55.727Z,81.39
2023-01-22T06:45:10.943Z,81.22
2023-01-22T06:50:18.900Z,81.21
2023-01-22T06:55:20.956Z,81.27
2023-01-22T07:00:23.547Z,81.36
2023-01-22T07:05:27.532Z,81.32
2023-01-22T07:10:29.410Z,81.37
2023-01-22T07:15:31.277Z,81.37
2023-01-22T07:20:33.016Z,81.35
2023-01-22T07:25:35.188Z,81.47
2023-01-22T07:30:37.546Z,81.52
2023-01-22T07:35:40.053Z,81.45
2023-01-22T07:40:41.913Z,81.44
2023-01-22T07:45:43.735Z,81.58
2023-01-22T07:50:45.515Z,81.64
2023-01-22T07:55:47.307Z,81.84
2023-01-22T08:00:49.360Z,81.76
2023-01-22T08:05:51.185Z,81.83
2023-01-22T08:10:52.942Z,82.04
2023-01-22T08:15:55.210Z,81.82
2023-01-22T08:21:01.125Z,81.96
2023-01-22T08:26:04.446Z,82.00
2023-01-22T08:31:09.362Z,82.27
2023-01-22T08:36:13.202Z,82.30
2023-01-22T08:41:15.787Z,82.59
2023-01-22T08:46:17.609Z,82.49
2023-01-22T08:51:19.950Z,82.62
2023-01-22T08:56:22.170Z,82.65
2023-01-22T09:01:24.390Z,82.92
2023-01-22T09:06:27.343Z,82.94
2023-01-22T09:11:29.812Z,82.90
2023-01-22T09:16:32.967Z,82.96
2023-01-22T09:21:37.455Z,82.96
2023-01-22T09:26:39.453Z,82.80
2023-01-22T09:31:41.245Z,82.69
2023-01-22T09:36:43.369Z,82.68
2023-01-22T09:41:53.686Z,82.91
2023-01-22T09:47:03.902Z,82.86
2023-01-22T09:52:09.871Z,82.92
2023-01-22T09:57:30.673Z,82.75
2023-01-22T10:02:47.218Z,83.06
2023-01-22T10:08:05.827Z,83.09
2023-01-22T10:13:27.709Z,83.14
2023-01-22T10:18:55.837Z,83.21
2023-01-22T10:23:59.333Z,83.38
2023-01-22T10:29:23.595Z,83.47
2023-01-22T10:34:32.925Z,83.32
2023-01-22T10:39:45.220Z,83.37
2023-01-22T10:44:47.630Z,83.36
2023-01-22T10:50:06.020Z,83.35
2023-01-22T10:55:21.649Z,83.57
2023-01-22T11:00:42.950Z,83.44
2023-01-22T11:05:58.997Z,83.51
2023-01-22T11:11:04.501Z,83.25
2023-01-22T11:16:16.374Z,83.07
2023-01-22T11:21:35.513Z,83.02
2023-01-22T11:27:14.596Z,83.18
2023-01-22T11:32:22.252Z,83.13
2023-01-22T11:37:58.867Z,83.02
2023-01-22T11:43:18.899Z,83.19
2023-01-22T11:48:44.094Z,83.21
2023-01-22T11:54:06.309Z,83.03
2023-01-22T11:59:35.166Z,82.78
2023-01-22T12:05:12.025Z,82.72
2023-01-22T12:11:07.719Z,82.44
2023-01-22T12:16:22.123Z,82.33
2023-01-22T12:21:35.310Z,82.60
2023-01-22T12:26:45.850Z,82.44
2023-01-22T12:32:04.939Z,82.06
2023-01-22T12:37:11.011Z,82.26
2023-01-22T12:42:13.926Z,82.34
2023-01-22T12:47:27.339Z,82.04
2023-01-22T12:52:36.475Z,82.04
2023-01-22T12:57:41.175Z,82.21
2023-01-22T13:02:43.119Z,81.95
2023-01-22T13:07:45.951Z,81.99
2023-01-22T13:12:53.070Z,81.76
2023-01-22T13:18:17.132Z,81.78
2023-01-22T13:23:21.552Z,81.84
2023-01-22T13:28:28.507Z,81.73
2023-01-22T13:33:31.679Z,81.73
2023-01-22T13:38:33.583Z,81.59
2023-01-22T13:43:38.152Z,81.67
2023-01-22T13:48:40.459Z,81.66
2023-01-22T13:53:52.000Z,81.56
2023-01-22T13:59:19.500Z,81.64
2023-01-22T14:04:37.625Z,81.51
2023-01-22T14:09:40.835Z,81.39
2023-01-22T14:14:43.778Z,81.34
2023-01-22T14:19:45.625Z,81.43
2023-01-22T14:24:55.149Z,81.21
2023-01-22T14:29:57.047Z,81.18
2023-01-22T14:35:04.632Z,81.14
2023-01-22T14:40:07.480Z,81.21
2023-01-22T14:45:10.427Z,81.02
2023-01-22T14:50:16.608Z,81.25
2023-01-22T14:55:19.647Z,81.04
2023-01-22T15:00:21.756Z,81.07
2023-01-22T15:05:24.096Z,81.30
2023-01-22T15:10:25.906Z,81.14
2023-01-22T15:15:28.622Z,81.40
2023-01-22T15:20:30.470Z,81.24
2023-01-22T15:25:32.386Z,81.42
2023-01-22T15:30:34.157Z,81.08
2023-01-22T15:35:35.992Z,81.37
2023-01-22T15:40:40.888Z,81.44
2023-01-22T15:45:42.740Z,81.28
2023-01-22T15:50:44.651Z,81.34
2023-01-22T15:55:50.310Z,81.44
2023-01-22T16:00:52.077Z,81.42
2023-01-22T16:05:54.132Z,81.30
2023-01-22T16:10:56.231Z,81.59
2023-01-22T16:16:04.373Z,81.58
2023-01-22T16:21:07.515Z,81.84
2023-01-22T16:26:14.074Z,82.09
2023-01-22T16:31:18.932Z,82.04
2023-01-22T16:36:25.660Z,82.41
2023-01-22T16:41:30.418Z,82.37
2023-01-22T16:46:34.155Z,82.55
2023-01-22T16:51:41.112Z,82.58
2023-01-22T16:56:45.814Z,82.69
2023-01-22T17:01:47.971Z,82.42
2023-01-22T17:06:55.578Z,82.81
2023-01-22T17:12:00.707Z,82.77
2023-01-22T17:18:08.458Z,83.02
2023-01-22T17:23:10.378Z,82.98
2023-01-22T17:28:12.450Z,83.11
2023-01-22T17:33:14.833Z,83.29
2023-01-22T17:38:19.488Z,83.25
2023-01-22T17:43:23.086Z,83.33
2023-01-22T17:48:34.196Z,83.60
2023-01-22T17:53:42.745Z,83.58
2023-01-22T17:58:45.706Z,83.69
2023-01-22T18:03:48.692Z,83.42
2023-01-22T18:15:12.974Z,83.38
2023-01-22T18:20:15.157Z,83.62
2023-01-22T18:25:25.876Z,83.82
2023-01-22T18:30:27.888Z,83.66
2023-01-22T18:35:29.755Z,83.91
2023-01-22T18:40:32.161Z,83.96
2023-01-22T18:45:35.955Z,83.79
2023-01-22T18:57:39.840Z,83.62
2023-01-22T19:02:50.872Z,83.49
2023-01-22T19:08:53.537Z,83.51
2023-01-22T19:22:06.201Z,83.53
2023-01-22T19:27:43.164Z,83.61
2023-01-22T19:33:11.486Z,83.46
2023-01-22T19:39:21.865Z,83.37
2023-01-22T19:44:25.810Z,83.17
2023-01-22T19:49:43.045Z,83.29
2023-01-22T19:54:48.364Z,83.17
2023-01-22T20:00:05.810Z,83.55
2023-01-22T20:05:12.127Z,83.24
2023-01-22T20:10:29.650Z,83.40
2023-01-22T20:16:43.181Z,83.43
2023-01-22T20:21:49.079Z,83.17
2023-01-22T20:27:01.377Z,83.29
2023-01-22T20:32:03.600Z,83.23
2023-01-22T20:37:05.550Z,83.19
2023-01-22T20:42:07.671Z,83.15
2023-01-22T20:47:09.617Z,82.93
2023-01-22T20:52:11.480Z,82.73
2023-01-22T20:57:18.328Z,83.05
2023-01-22T21:02:29.917Z,82.99
2023-01-22T21:07:35.601Z,83.05
2023-01-22T21:12:47.044Z,83.07
2023-01-22T21:17:49.051Z,83.09
2023-01-22T21:22:54.238Z,82.82
2023-01-22T21:27:58.816Z,82.80
2023-01-22T21:33:00.796Z,82.92
2023-01-22T21:38:02.785Z,82.95
2023-01-22T21:43:23.123Z,82.97
2023-01-22T21:48:25.179Z,82.85
2023-01-22T21:53:42.527Z,82.94
2023-01-22T21:58:45.388Z,82.87
2023-01-22T22:03:51.191Z,82.99
2023-01-22T22:08:53.143Z,82.86
2023-01-22T22:14:01.870Z,82.96
2023-01-22T22:19:29.333Z,83.18
2023-01-22T22:29:49.009Z,83.29
2023-01-22T22:34:55.652Z,83.09
2023-01-22T22:39:58.571Z,83.40
2023-01-22T22:45:12.640Z,83.19
2023-01-22T22:50:14.833Z,82.99
2023-01-22T22:55:16.717Z,83.09
2023-01-22T23:00:19.396Z,83.17
2023-01-22T23:05:21.649Z,83.11
2023-01-22T23:10:29.418Z,83.20
2023-01-22T23:15:31.376Z,83.16
2023-01-22T23:20:34.986Z,82.97
2023-01-22T23:25:36.938Z,83.11
2023-01-22T23:30:39.578Z,83.09
2023-01-22T23:35:41.857Z,83.21
2023-01-22T23:40:43.740Z,83.21
2023-01-22T23:45:47.034Z,83.14
2023-01-22T23:50:50.724Z,83.34
2023-01-22T23:56:05.585Z,83.52
